createdAt,value
2023-03-10T00:04:58.574Z,100692.66
2023-03-10T00:10:27.308Z,100782.34
2023-03-10T00:15:32.479Z,100801.66
2023-03-10T00:20:36.518Z,100606.28
2023-03-10T00:26:05.585Z,100765.25
2023-03-10T00:31:13.351Z,100721.31
2023-03-10T00:37:06.800Z,100758.53
2023-03-10T00:42:11.374Z,100766.06
2023-03-10T00:47:14.564Z,100664.41
2023-03-10T00:52:18.170Z,100612.34
2023-03-10T00:57:21.226Z,100611.09
2023-03-10T01:02:25.311Z,100787.53
2023-03-10T01:07:28.385Z,100672.47
2023-03-10T01:12:33.254Z,100650.47
2023-03-10T01:17:36.046Z,100663.06
2023-03-10T01:22:38.796Z,100767.00
2023-03-10T01:27:43.494Z,100768.06
2023-03-10T01:32:46.634Z,100693.44
2023-03-10T01:38:17.989Z,100757.13
2023-03-10T01:43:24.635Z,100766.88
2023-03-10T01:56:26.468Z,100751.44
2023-03-10T02:01:31.556Z,100661.97
2023-03-10T02:06:36.579Z,100727.00
2023-03-10T02:11:39.666Z,100724.59
2023-03-10T02:17:17.528Z,100742.50
2023-03-10T02:30:28.542Z,100745.53
2023-03-10T02:35:33.510Z,100620.13
2023-03-10T02:40:48.438Z,100727.22
2023-03-10T02:46:05.651Z,100681.28
2023-03-10T02:51:19.463Z,100662.19
2023-03-10T02:56:23.155Z,100734.34
2023-03-10T03:01:26.806Z,100683.13
2023-03-10T03:06:33.581Z,100737.63
2023-03-10T03:11:38.035Z,100734.75
2023-03-10T03:16:44.139Z,100567.28
2023-03-10T03:21:50.426Z,100668.47
2023-03-10T03:26:55.895Z,100742.69
2023-03-10T03:32:03.402Z,100658.50
2023-03-10T03:38:03.132Z,100736.72
2023-03-10T03:43:08.084Z,100678.91
2023-03-10T03:48:14.016Z,100743.09
2023-03-10T03:53:18.805Z,100754.31
2023-03-10T03:58:21.985Z,100658.53
2023-03-10T04:03:27.188Z,100694.75
2023-03-10T04:08:30.807Z,100679.25
2023-03-10T04:13:35.143Z,100558.53
2023-03-10T04:18:38.366Z,100663.69
2023-03-10T04:23:42.537Z,100557.44
2023-03-10T04:28:48.756Z,100663.72
2023-03-10T04:33:54.052Z,100604.22
2023-03-10T04:38:58.744Z,100734.09
2023-03-10T04:44:06.318Z,100668.69
2023-03-10T04:49:10.269Z,100727.13
2023-03-10T04:54:13.014Z,100713.56
2023-03-10T04:59:16.672Z,100719.16
2023-03-10T05:04:20.029Z,100719.25
2023-03-10T05:09:23.217Z,100712.94
2023-03-10T05:14:26.228Z,100688.69
2023-03-10T05:19:29.104Z,100704.75
2023-03-10T05:24:35.896Z,100685.41
2023-03-10T05:29:40.362Z,100706.09
2023-03-10T05:34:51.294Z,100698.06
2023-03-10T05:39:55.793Z,100679.50
2023-03-10T05:45:00.871Z,100710.72
2023-03-10T05:50:05.034Z,100697.91
2023-03-10T05:55:14.897Z,100702.75
2023-03-10T06:00:19.134Z,100687.03
2023-03-10T06:05:36.899Z,100687.03
2023-03-10T06:10:40.450Z,100716.97
2023-03-10T06:15:43.184Z,100728.50
2023-03-10T06:20:48.614Z,100715.28
2023-03-10T06:26:08.368Z,100724.31
2023-03-10T06:31:18.453Z,100708.41
2023-03-10T06:36:22.332Z,100703.84
2023-03-10T06:41:26.884Z,100703.94
2023-03-10T06:46:31.656Z,100699.66
2023-03-10T06:51:34.633Z,100680.75
2023-03-10T06:56:37.639Z,100705.44
2023-03-10T07:01:40.387Z,100674.81
2023-03-10T07:06:42.781Z,100685.69
2023-03-10T07:11:45.070Z,100681.53
2023-03-10T07:16:48.567Z,100649.75
2023-03-10T07:21:51.168Z,100680.03
2023-03-10T07:26:54.593Z,100681.53
2023-03-10T07:31:58.664Z,100647.78
2023-03-10T07:37:05.575Z,100668.50
2023-03-10T07:42:17.236Z,100642.75
2023-03-10T07:47:22.540Z,100654.59
2023-03-10T07:52:26.753Z,100617.09
2023-03-10T07:57:30.389Z,100641.81
2023-03-10T08:02:33.270Z,100623.91
2023-03-10T08:07:37.998Z,100625.63
2023-03-10T08:12:41.609Z,100635.41
2023-03-10T08:17:44.273Z,100655.91
2023-03-10T08:22:47.207Z,100666.13
2023-03-10T08:27:51.659Z,100658.91
2023-03-10T08:32:55.822Z,100635.03
2023-03-10T08:37:59.119Z,100630.72
2023-03-10T08:43:01.965Z,100642.00
2023-03-10T08:48:06.368Z,100623.69
2023-03-10T08:53:13.849Z,100615.63
2023-03-10T08:58:24.994Z,100581.50
2023-03-10T09:03:44.856Z,100580.69
2023-03-10T09:08:51.300Z,100606.19
2023-03-10T09:13:56.286Z,100580.69
2023-03-10T09:19:00.516Z,100595.78
2023-03-10T09:24:04.389Z,100602.19
2023-03-10T09:29:06.844Z,100591.47
2023-03-10T09:34:12.932Z,100569.97
2023-03-10T09:39:16.465Z,100585.88
2023-03-10T09:44:38.717Z,100565.44
2023-03-10T09:49:56.922Z,100583.72
2023-03-10T09:55:29.134Z,100582.84
2023-03-10T10:00:43.096Z,100560.09
2023-03-10T10:05:47.324Z,100563.38
2023-03-10T10:10:58.184Z,100523.91
2023-03-10T10:16:33.453Z,100559.13
2023-03-10T10:22:21.720Z,100565.59
2023-03-10T10:27:25.580Z,100551.97
2023-03-10T10:32:28.368Z,100557.66
2023-03-10T10:37:40.191Z,100544.50
2023-03-10T10:42:56.597Z,100543.97
2023-03-10T10:48:02.589Z,100542.34
2023-03-10T10:53:20.791Z,100551.81
2023-03-10T10:58:34.148Z,100545.66
2023-03-10T11:03:41.735Z,100563.88
2023-03-10T11:08:45.827Z,100563.88
2023-03-10T11:13:51.762Z,100566.59
2023-03-10T11:19:13.378Z,100562.00
2023-03-10T11:24:16.088Z,100564.16
2023-03-10T11:29:33.295Z,100555.50
2023-03-10T11:34:59.726Z,100583.44
2023-03-10T11:40:20.261Z,100574.06
2023-03-10T11:45:44.186Z,100586.41
2023-03-10T11:50:56.352Z,100585.06
2023-03-10T11:56:03.162Z,100580.50
2023-03-10T12:01:13.533Z,100576.97
2023-03-10T12:06:54.349Z,100580.47
2023-03-10T12:11:57.225Z,100569.22
2023-03-10T12:17:03.145Z,100542.56
2023-03-10T12:22:25.317Z,100567.25
2023-03-10T12:27:28.204Z,100583.59
2023-03-10T12:32:47.833Z,100554.00
2023-03-10T12:38:00.067Z,100536.53
2023-03-10T12:43:41.873Z,100563.31
2023-03-10T12:48:54.038Z,100583.28
2023-03-10T12:54:07.242Z,100579.25
2023-03-10T12:59:40.970Z,100566.78
2023-03-10T13:04:44.219Z,100589.84
2023-03-10T13:09:55.062Z,100593.25
2023-03-10T13:15:01.449Z,100551.59
2023-03-10T13:20:09.294Z,100582.94
2023-03-10T13:25:16.101Z,100556.41
2023-03-10T13:30:27.427Z,100573.59
2023-03-10T13:35:34.193Z,100559.41
2023-03-10T13:40:44.571Z,100540.97
2023-03-10T13:45:58.677Z,100569.47
2023-03-10T13:51:16.477Z,100585.91
2023-03-10T13:56:23.217Z,100574.56
2023-03-10T14:01:30.239Z,100555.03
2023-03-10T14:06:33.599Z,100547.19
2023-03-10T14:11:45.379Z,100545.22
2023-03-10T14:16:54.409Z,100557.75
2023-03-10T14:22:01.921Z,100539.75
2023-03-10T14:27:11.931Z,100603.13
2023-03-10T14:32:15.278Z,100609.06
2023-03-10T14:37:18.152Z,100471.81
2023-03-10T14:42:29.413Z,100593.91
2023-03-10T14:47:33.718Z,100555.72
2023-03-10T14:52:43.963Z,100548.72
2023-03-10T14:57:56.229Z,100554.13
2023-03-10T15:03:00.058Z,100620.56
2023-03-10T15:08:05.331Z,100602.63
2023-03-10T15:13:08.506Z,100636.97
2023-03-10T15:18:13.638Z,100584.16
2023-03-10T15:23:19.874Z,100600.78
2023-03-10T15:28:23.441Z,100628.13
2023-03-10T15:33:26.670Z,100556.59
2023-03-10T15:38:29.876Z,100530.03
2023-03-10T15:43:32.366Z,100544.41
2023-03-10T15:48:37.673Z,100552.88
2023-03-10T15:53:41.694Z,100694.28
2023-03-10T15:58:45.124Z,100687.44
2023-03-10T16:03:52.589Z,100709.53
2023-03-10T16:08:56.577Z,100644.16
2023-03-10T16:13:59.327Z,100663.41
2023-03-10T16:19:02.977Z,100704.47
2023-03-10T16:24:05.836Z,100596.97
2023-03-10T16:29:08.625Z,100640.31
2023-03-10T16:34:11.305Z,100664.25
2023-03-10T16:39:15.656Z,100745.44
2023-03-10T16:44:20.683Z,100667.03
2023-03-10T16:49:24.004Z,100688.19
2023-03-10T16:54:27.273Z,100718.50
2023-03-10T16:59:32.487Z,100698.50
2023-03-10T17:04:35.394Z,100651.78
2023-03-10T17:09:38.541Z,100602.22
2023-03-10T17:14:41.456Z,100711.69
2023-03-10T17:19:44.217Z,100696.66
2023-03-10T17:24:52.170Z,100686.72
2023-03-10T17:29:59.228Z,100750.25
2023-03-10T17:35:01.950Z,100657.56
2023-03-10T17:40:05.586Z,100697.47
2023-03-10T17:45:09.181Z,100770.38
2023-03-10T17:50:12.442Z,100647.53
2023-03-10T17:55:15.935Z,100697.38
2023-03-10T18:00:19.950Z,100721.19
2023-03-10T18:05:22.933Z,100762.06
2023-03-10T18:10:26.271Z,100770.84
2023-03-10T18:15:29.601Z,100713.56
2023-03-10T18:20:35.144Z,100770.09
2023-03-10T18:25:45.277Z,100760.06
2023-03-10T18:30:50.256Z,100797.78
2023-03-10T18:35:55.039Z,100799.97
2023-03-10T18:41:01.959Z,100798.44
2023-03-10T18:46:04.847Z,100772.75
2023-03-10T18:51:07.625Z,100802.81
2023-03-10T18:56:10.722Z,100829.06
2023-03-10T19:01:14.696Z,100665.31
2023-03-10T19:06:17.589Z,100788.84
2023-03-10T19:11:24.663Z,100808.50
2023-03-10T19:16:27.411Z,100791.81
2023-03-10T19:21:30.428Z,100789.44
2023-03-10T19:26:33.489Z,100780.72
2023-03-10T19:31:40.262Z,100748.50
2023-03-10T19:36:42.836Z,100820.25
2023-03-10T19:41:45.636Z,100769.75
2023-03-10T19:46:48.446Z,100844.78
2023-03-10T19:51:51.343Z,100849.22
2023-03-10T19:56:53.934Z,100760.09
2023-03-10T20:01:56.699Z,100852.31
2023-03-10T20:07:02.935Z,100784.41
2023-03-10T20:12:06.106Z,100831.44
2023-03-10T20:17:09.529Z,100756.09
2023-03-10T20:22:15.500Z,100758.56
2023-03-10T20:27:18.804Z,100802.34
2023-03-10T20:32:21.904Z,100787.00
2023-03-10T20:37:25.188Z,100770.03
2023-03-10T20:42:28.414Z,100768.72
2023-03-10T20:47:32.155Z,100817.34
2023-03-10T20:52:37.058Z,100787.91
2023-03-10T20:57:48.474Z,100791.50
2023-03-10T21:02:53.279Z,100848.97
2023-03-10T21:07:56.723Z,100760.47
2023-03-10T21:13:00.411Z,100863.44
2023-03-10T21:18:03.561Z,100857.97
2023-03-10T21:23:06.960Z,100737.84
2023-03-10T21:28:10.384Z,100817.19
2023-03-10T21:33:13.478Z,100766.66
2023-03-10T21:38:17.815Z,100862.88
2023-03-10T21:43:21.118Z,100854.66
2023-03-10T21:48:24.073Z,100838.97
2023-03-10T21:53:28.803Z,100862.94
2023-03-10T21:58:31.403Z,100837.28
2023-03-10T22:03:35.504Z,100806.66
2023-03-10T22:08:39.872Z,100857.13
2023-03-10T22:13:42.896Z,100907.16
2023-03-10T22:18:45.617Z,100818.59
2023-03-10T22:23:48.371Z,100871.28
2023-03-10T22:28:51.655Z,100916.25
2023-03-10T22:33:54.437Z,100915.03
2023-03-10T22:38:59.539Z,100934.44
2023-03-10T22:44:02.495Z,100937.88
2023-03-10T22:49:06.784Z,100915.34
2023-03-10T22:54:10.016Z,100895.69
2023-03-10T22:59:13.066Z,100908.69
2023-03-10T23:04:16.907Z,100959.19
2023-03-10T23:09:19.998Z,100981.19
2023-03-10T23:19:43.424Z,100977.16
2023-03-10T23:24:46.443Z,100919.41
2023-03-10T23:29:49.530Z,100974.75
2023-03-10T23:34:52.497Z,100944.22
2023-03-10T23:39:55.568Z,100943.22
2023-03-10T23:44:58.090Z,100865.09
2023-03-10T23:50:03.036Z,100822.78
2023-03-10T23:55:07.315Z,100946.28
